Time;durP1;ratioP1;P1;durP2;ratioP2;P2;SDS_P1;SDS_P2;PMS_P1;PMS_P2;Temp;Humidity;BMP_temperature;BMP_pressure;BME280_temperature;BME280_humidity;BME280_pressure;Samples;Min_cycle;Max_cycle;Signal;HPM_P1;HPM_P2
2022/04/29 00:01:14;;;;;;;;;;;;;;;8.04;94.04;97929.30;109831;1250;69491;-67
2022/04/29 00:03:45;;;;;;;;;;;;;;;8.04;94.01;97927.95;109803;1250;59715;-66
2022/04/29 00:06:15;;;;;;;;;;;;;;;8.03;94.87;97929.88;109571;1252;59702;-66
2022/04/29 00:08:44;;;;;;;;;;;;;;;8.04;95.99;97931.95;109636;1251;71414;-65
2022/04/29 00:11:14;;;;;;;;;;;;;;;8.03;96.00;97932.87;109802;1250;67845;-67
2022/04/29 00:13:43;;;;;;;;;;;;;;;8.02;95.83;97930.83;109620;1252;69733;-67
2022/04/29 00:16:13;;;;;;;;;;;;;;;8.01;95.80;97931.91;109787;1250;60126;-66
2022/04/29 00:18:43;;;;;;;;;;;;;;;8.01;95.70;97935.58;109668;1252;59719;-66
2022/04/29 00:21:12;;;;;;;;;;;;;;;8.00;95.95;97936.30;109784;1250;71969;-68
2022/04/29 00:23:42;;;;;;;;;;;;;;;8.00;96.56;97938.39;109789;1250;68617;-66
2022/04/29 00:26:12;;;;;;;;;;;;;;;8.01;96.71;97934.70;109671;1250;69481;-67
2022/04/29 00:28:42;;;;;;;;;;;;;;;8.01;96.62;97937.13;109785;1250;59665;-67
2022/04/29 00:31:11;;;;;;;;;;;;;;;8.02;96.73;97933.61;109644;1251;59656;-66
2022/04/29 00:33:42;;;;;;;;;;;;;;;8.03;96.79;97934.95;109607;1252;72326;-67
2022/04/29 00:36:12;;;;;;;;;;;;;;;8.03;96.95;97933.88;109642;1252;67812;-67
2022/04/29 00:38:42;;;;;;;;;;;;;;;8.04;96.91;97937.66;109865;1250;69387;-68
2022/04/29 00:41:16;;;;;;;;;;;;;;;8.05;96.96;97938.98;109755;1251;59760;-68
2022/04/29 00:43:45;;;;;;;;;;;;;;;8.07;97.02;97941.34;109859;1253;59635;-69
2022/04/29 00:46:16;;;;;;;;;;;;;;;8.08;96.82;97944.01;109651;1253;71583;-67
2022/04/29 00:48:46;;;;;;;;;;;;;;;8.10;96.56;97944.26;109624;1253;68578;-64
2022/04/29 00:51:16;;;;;;;;;;;;;;;8.12;96.35;97947.79;109718;1251;68915;-65
2022/04/29 00:53:47;;;;;;;;;;;;;;;8.13;96.89;97949.84;109592;1250;59815;-66
2022/04/29 00:56:19;;;;;;;;;;;;;;;8.14;96.87;97948.42;109846;1250;59684;-66
2022/04/29 00:59:12;;;;;;;;;;;;;;;8.15;96.96;97945.06;109739;1253;71448;-68
2022/04/29 01:01:45;;;;;;;;;;;;;;;8.16;96.88;97942.20;109743;1250;67828;-66
2022/04/29 01:04:25;;;;;;;;;;;;;;;8.16;96.78;97941.66;109780;1250;69494;-67
2022/04/29 01:06:56;;;;;;;;;;;;;;;8.17;96.69;97942.33;109596;1253;59773;-66
2022/04/29 01:09:26;;;;;;;;;;;;;;;8.17;96.84;97942.66;109753;1252;59679;-66
2022/04/29 01:11:56;;;;;;;;;;;;;;;8.17;96.83;97941.77;109588;1252;70794;-65
2022/04/29 01:14:26;;;;;;;;;;;;;;;8.19;96.59;97941.73;109645;1251;68642;-66
2022/04/29 01:16:58;;;;;;;;;;;;;;;8.19;96.57;97943.98;109506;1252;69704;-65
2022/04/29 01:19:30;;;;;;;;;;;;;;;8.18;96.46;97945.41;109616;1253;59744;-66
2022/04/29 01:22:01;;;;;;;;;;;;;;;8.18;96.45;97946.27;109506;1254;59693;-66
2022/04/29 01:24:31;;;;;;;;;;;;;;;8.17;96.41;97946.64;109711;1250;70884;-66
2022/04/29 01:27:10;;;;;;;;;;;;;;;8.16;96.09;97944.98;109590;1250;68497;-66
2022/04/29 01:29:41;;;;;;;;;;;;;;;8.16;96.24;97948.65;109612;1253;68667;-68
2022/04/29 01:32:13;;;;;;;;;;;;;;;8.16;95.91;97946.36;109586;1253;59770;-68
2022/04/29 01:34:45;;;;;;;;;;;;;;;8.16;95.42;97946.52;109730;1253;59746;-66
2022/04/29 01:37:17;;;;;;;;;;;;;;;8.18;95.41;97945.05;109788;1253;71471;-67
2022/04/29 01:39:48;;;;;;;;;;;;;;;8.21;95.62;97942.86;109829;1250;68601;-67
2022/04/29 01:42:20;;;;;;;;;;;;;;;8.22;95.83;97945.68;109701;1253;69388;-67
2022/04/29 01:44:55;;;;;;;;;;;;;;;8.24;95.60;97945.12;109661;1253;59687;-68
2022/04/29 01:47:26;;;;;;;;;;;;;;;8.26;95.91;97947.42;109546;1254;60115;-68
2022/04/29 01:50:26;;;;;;;;;;;;;;;8.26;96.66;97944.29;109806;1250;70913;-68
2022/04/29 01:52:56;;;;;;;;;;;;;;;8.28;96.67;97944.36;109535;1254;68727;-67
2022/04/29 01:55:27;;;;;;;;;;;;;;;8.29;96.54;97942.05;109664;1253;68618;-67
2022/04/29 01:57:58;;;;;;;;;;;;;;;8.31;96.37;97938.28;109742;1252;59693;-67
2022/04/29 02:00:31;;;;;;;;;;;;;;;8.33;96.42;97940.23;109716;1251;59678;-67
2022/04/29 02:03:02;;;;;;;;;;;;;;;8.35;96.25;97941.70;109762;1251;71734;-68
2022/04/29 02:05:33;;;;;;;;;;;;;;;8.36;96.34;97941.81;109675;1252;68736;-67
2022/04/29 02:08:04;;;;;;;;;;;;;;;8.35;96.44;97944.10;109789;1253;69384;-68
2022/04/29 02:10:35;;;;;;;;;;;;;;;8.35;96.50;97948.64;109607;1254;59700;-68
2022/04/29 02:13:06;;;;;;;;;;;;;;;8.36;95.96;97949.28;109744;1250;59753;-68
2022/04/29 02:16:08;;;;;;;;;;;;;;;8.38;95.50;97950.60;109592;1251;71581;-66
2022/04/29 02:18:41;;;;;;;;;;;;;;;8.37;95.28;97947.69;109665;1253;68442;-67
2022/04/29 02:21:11;;;;;;;;;;;;;;;8.37;94.71;97945.94;109557;1253;69563;-68
2022/04/29 02:23:41;;;;;;;;;;;;;;;8.38;94.92;97946.77;109831;1251;59642;-67
2022/04/29 02:26:13;;;;;;;;;;;;;;;8.36;95.32;97945.45;109648;1253;59713;-68
2022/04/29 02:28:43;;;;;;;;;;;;;;;8.37;94.94;97945.96;109743;1251;71751;-67
2022/04/29 02:31:15;;;;;;;;;;;;;;;8.37;94.80;97951.49;109819;1251;68764;-66
2022/04/29 02:33:46;;;;;;;;;;;;;;;8.38;94.77;97954.59;109580;1253;69519;-67
2022/04/29 02:36:17;;;;;;;;;;;;;;;8.35;94.69;97954.88;109860;1253;59719;-67
2022/04/29 02:38:47;;;;;;;;;;;;;;;8.32;94.47;97954.86;109582;1253;59648;-68
2022/04/29 02:41:18;;;;;;;;;;;;;;;8.31;94.31;97958.39;109792;1251;71711;-66
2022/04/29 02:43:50;;;;;;;;;;;;;;;8.29;94.11;97954.72;109648;1251;68666;-68
2022/04/29 02:46:21;;;;;;;;;;;;;;;8.29;94.35;97956.25;109693;1253;69460;-67
2022/04/29 02:48:52;;;;;;;;;;;;;;;8.31;94.45;97961.55;109620;1251;59765;-68
2022/04/29 02:51:24;;;;;;;;;;;;;;;8.33;94.63;97965.61;109580;1254;59751;-68
2022/04/29 02:53:55;;;;;;;;;;;;;;;8.35;94.64;97969.11;109548;1253;71193;-68
2022/04/29 02:56:26;;;;;;;;;;;;;;;8.37;94.18;97967.49;109497;1253;67627;-67
2022/04/29 02:59:12;;;;;;;;;;;;;;;8.38;93.98;97967.09;109617;1253;68647;-67
2022/04/29 03:01:43;;;;;;;;;;;;;;;8.41;94.10;97972.48;109423;1254;59740;-67
2022/04/29 03:04:14;;;;;;;;;;;;;;;8.41;93.90;97969.50;109473;1255;59707;-68
2022/04/29 03:06:45;;;;;;;;;;;;;;;8.44;93.58;97967.48;109483;1252;71726;-66
2022/04/29 03:09:16;;;;;;;;;;;;;;;8.44;93.69;97968.83;109617;1253;68237;-67
2022/04/29 03:11:50;;;;;;;;;;;;;;;8.43;94.26;97968.70;109576;1253;68591;-68
2022/04/29 03:14:21;;;;;;;;;;;;;;;8.44;93.75;97969.93;109450;1251;59715;-67
2022/04/29 03:16:52;;;;;;;;;;;;;;;8.40;93.13;97969.94;109745;1253;59805;-67
2022/04/29 03:19:22;;;;;;;;;;;;;;;8.40;93.20;97971.82;109541;1253;71556;-67
2022/04/29 03:21:52;;;;;;;;;;;;;;;8.39;93.64;97971.04;109759;1251;68590;-67
2022/04/29 03:24:24;;;;;;;;;;;;;;;8.38;93.85;97971.98;109592;1253;69435;-66
2022/04/29 03:26:55;;;;;;;;;;;;;;;8.38;94.08;97974.52;109581;1251;59742;-67
2022/04/29 03:29:26;;;;;;;;;;;;;;;8.40;94.64;97976.70;109440;1254;59745;-66
2022/04/29 03:31:56;;;;;;;;;;;;;;;8.41;94.55;97973.86;109413;1254;72934;-68
2022/04/29 03:34:42;;;;;;;;;;;;;;;8.43;94.39;97975.54;109697;1253;67752;-69
2022/04/29 03:37:13;;;;;;;;;;;;;;;8.44;94.51;97979.46;109508;1253;70466;-66
2022/04/29 03:39:44;;;;;;;;;;;;;;;8.45;94.83;97979.36;109376;1253;59727;-67
2022/04/29 03:42:16;;;;;;;;;;;;;;;8.47;95.30;97979.59;109547;1254;59747;-67
2022/04/29 03:44:46;;;;;;;;;;;;;;;8.50;94.72;97982.95;109658;1253;71634;-66
2022/04/29 03:47:19;;;;;;;;;;;;;;;8.51;94.62;97980.30;109479;1251;68078;-67
2022/04/29 03:50:05;;;;;;;;;;;;;;;8.49;94.27;97981.59;109876;1251;69296;-66
2022/04/29 03:52:53;;;;;;;;;;;;;;;8.50;94.28;97978.23;109847;1251;59938;-67
2022/04/29 03:55:23;;;;;;;;;;;;;;;8.50;94.38;97978.23;109577;1254;59842;-67
2022/04/29 03:57:54;;;;;;;;;;;;;;;8.53;94.49;97983.13;109598;1253;70834;-66
2022/04/29 04:00:26;;;;;;;;;;;;;;;8.55;94.70;97978.11;109489;1254;67884;-66
2022/04/29 04:02:58;;;;;;;;;;;;;;;8.58;94.86;97979.54;109823;1251;69542;-70
2022/04/29 04:05:30;;;;;;;;;;;;;;;8.61;94.70;97981.10;109780;1251;59810;-68
2022/04/29 04:08:01;;;;;;;;;;;;;;;8.63;94.86;97984.95;109635;1253;59689;-68
2022/04/29 04:10:43;;;;;;;;;;;;;;;8.65;94.90;97989.19;109807;1251;71424;-68
2022/04/29 04:13:15;;;;;;;;;;;;;;;8.69;94.88;97988.48;109434;1254;68391;-67
2022/04/29 04:16:15;;;;;;;;;;;;;;;8.74;94.96;97996.70;109699;1251;69020;-67
2022/04/29 04:18:46;;;;;;;;;;;;;;;8.77;94.62;98002.48;109610;1253;59766;-66
2022/04/29 04:21:16;;;;;;;;;;;;;;;8.75;94.29;98000.64;109561;1253;59700;-66
2022/04/29 04:23:47;;;;;;;;;;;;;;;8.78;94.27;98002.23;109605;1254;70556;-66
2022/04/29 04:26:19;;;;;;;;;;;;;;;8.83;94.23;98003.88;109568;1253;68021;-67
2022/04/29 04:28:48;;;;;;;;;;;;;;;8.86;94.23;98009.25;109525;1251;68481;-66
2022/04/29 04:31:21;;;;;;;;;;;;;;;8.89;94.17;98009.05;109578;1253;59699;-67
2022/04/29 04:33:52;;;;;;;;;;;;;;;8.90;94.18;98015.60;109642;1253;59614;-67
2022/04/29 04:36:24;;;;;;;;;;;;;;;8.90;93.95;98015.26;109380;1255;71812;-67
2022/04/29 04:38:54;;;;;;;;;;;;;;;8.92;93.71;98013.60;109407;1254;67179;-67
2022/04/29 04:41:24;;;;;;;;;;;;;;;8.89;93.95;98014.12;109543;1254;68572;-68
2022/04/29 04:43:54;;;;;;;;;;;;;;;8.95;93.83;98018.27;109526;1253;59695;-67
2022/04/29 04:46:25;;;;;;;;;;;;;;;8.99;93.42;98021.71;109516;1254;60181;-65
2022/04/29 04:49:15;;;;;;;;;;;;;;;9.00;93.26;98021.33;109657;1251;70787;-67
2022/04/29 04:52:14;;;;;;;;;;;;;;;9.07;92.98;98025.63;109717;1253;69327;-67
2022/04/29 04:54:43;;;;;;;;;;;;;;;9.09;92.63;98023.56;109521;1251;68695;-65
2022/04/29 04:57:12;;;;;;;;;;;;;;;9.16;92.46;98027.18;109585;1254;59709;-65
2022/04/29 04:59:41;;;;;;;;;;;;;;;9.18;92.13;98030.70;109574;1251;59759;-65
2022/04/29 05:02:12;;;;;;;;;;;;;;;9.29;91.89;98035.48;109631;1251;70792;-65
2022/04/29 05:05:13;;;;;;;;;;;;;;;9.40;91.67;98035.73;109480;1253;67323;-66
2022/04/29 05:07:44;;;;;;;;;;;;;;;9.45;91.22;98038.23;109718;1251;68973;-66
2022/04/29 05:10:14;;;;;;;;;;;;;;;9.50;91.14;98037.23;109305;1253;59731;-66
2022/04/29 05:12:44;;;;;;;;;;;;;;;9.59;90.65;98038.42;109607;1253;60152;-68
2022/04/29 05:15:42;;;;;;;;;;;;;;;9.71;90.99;98040.17;109471;1254;71799;-65
2022/04/29 05:18:21;;;;;;;;;;;;;;;9.79;90.33;98038.98;109508;1254;67912;-66
2022/04/29 05:20:53;;;;;;;;;;;;;;;9.88;89.48;98042.27;109656;1253;69915;-66
2022/04/29 05:23:22;;;;;;;;;;;;;;;10.00;89.32;98040.17;109506;1251;59723;-65
2022/04/29 05:26:13;;;;;;;;;;;;;;;10.16;88.41;98039.04;109641;1253;59696;-64
2022/04/29 05:29:08;;;;;;;;;;;;;;;10.28;87.73;98046.00;109537;1254;71616;-66
2022/04/29 05:31:55;;;;;;;;;;;;;;;10.38;87.32;98046.73;109531;1254;67848;-68
2022/04/29 05:35:04;;;;;;;;;;;;;;;10.63;87.72;98047.47;109125;1257;69938;-69
2022/04/29 05:38:00;;;;;;;;;;;;;;;10.88;87.72;98048.98;108774;1261;59848;-66
2022/04/29 05:43:17;;;;;;;;;;;;;;;11.43;85.83;98049.28;109464;1254;70802;-68
2022/04/29 05:45:46;;;;;;;;;;;;;;;11.71;84.32;98054.02;109704;1251;66799;-69
2022/04/29 05:48:16;;;;;;;;;;;;;;;11.86;83.42;98056.70;109748;1251;69441;-68
2022/04/29 05:50:46;;;;;;;;;;;;;;;11.98;84.13;98058.15;109706;1251;60221;-68
2022/04/29 05:53:15;;;;;;;;;;;;;;;11.96;82.84;98062.98;109643;1253;59697;-67
2022/04/29 05:55:49;;;;;;;;;;;;;;;11.96;82.95;98063.39;109555;1254;72184;-69
2022/04/29 05:58:20;;;;;;;;;;;;;;;11.90;82.37;98066.08;109482;1254;68657;-67
2022/04/29 06:01:13;;;;;;;;;;;;;;;11.84;82.84;98067.87;109505;1254;70036;-69
2022/04/29 06:03:42;;;;;;;;;;;;;;;11.83;83.05;98068.60;109641;1253;59694;-67
2022/04/29 06:06:11;;;;;;;;;;;;;;;11.87;82.31;98067.66;109624;1251;59665;-66
2022/04/29 06:08:41;;;;;;;;;;;;;;;11.87;81.26;98068.16;109565;1253;71457;-67
2022/04/29 06:11:10;;;;;;;;;;;;;;;11.92;80.51;98071.53;109496;1254;67604;-66
2022/04/29 06:13:39;;;;;;;;;;;;;;;12.00;80.28;98076.57;109549;1251;68697;-68
2022/04/29 06:16:28;;;;;;;;;;;;;;;12.42;78.58;98074.70;109632;1251;59743;-67
2022/04/29 06:19:24;;;;;;;;;;;;;;;12.92;75.67;98076.95;109483;1254;59695;-66
2022/04/29 06:22:11;;;;;;;;;;;;;;;13.58;72.99;98084.05;109636;1251;70898;-68
2022/04/29 06:24:44;;;;;;;;;;;;;;;13.83;69.99;98086.94;109609;1253;68164;-66
2022/04/29 06:27:34;;;;;;;;;;;;;;;13.70;70.71;98088.27;109529;1252;68781;-69
2022/04/29 06:30:03;;;;;;;;;;;;;;;13.77;72.40;98087.89;109552;1252;59777;-67
2022/04/29 06:32:52;;;;;;;;;;;;;;;13.44;71.57;98091.20;109484;1253;59700;-65
2022/04/29 06:35:25;;;;;;;;;;;;;;;13.31;71.88;98092.89;109621;1251;71611;-66
2022/04/29 06:37:55;;;;;;;;;;;;;;;13.34;72.06;98095.48;109657;1251;68132;-67
2022/04/29 06:41:02;;;;;;;;;;;;;;;13.35;72.50;98098.86;109248;1256;68799;-68
2022/04/29 06:43:36;;;;;;;;;;;;;;;13.48;73.00;98099.52;109541;1251;59787;-64
2022/04/29 06:46:25;;;;;;;;;;;;;;;13.40;70.78;98099.04;109739;1251;59736;-64
2022/04/29 06:49:20;;;;;;;;;;;;;;;13.34;70.24;98097.41;109623;1251;72309;-67
2022/04/29 06:52:08;;;;;;;;;;;;;;;13.50;71.73;98100.20;109673;1250;67809;-66
2022/04/29 06:54:41;;;;;;;;;;;;;;;13.60;70.17;98096.69;109620;1251;70177;-67
2022/04/29 06:57:12;;;;;;;;;;;;;;;13.74;70.61;98095.61;109594;1251;59828;-69
2022/04/29 06:59:42;;;;;;;;;;;;;;;13.79;69.30;98096.86;109624;1251;59675;-67
2022/04/29 07:02:11;;;;;;;;;;;;;;;13.77;69.44;98092.59;109602;1253;71457;-66
2022/04/29 07:04:41;;;;;;;;;;;;;;;13.89;69.31;98089.80;109586;1251;68632;-68
2022/04/29 07:07:11;;;;;;;;;;;;;;;13.76;67.48;98091.63;109626;1251;69707;-69
2022/04/29 07:09:41;;;;;;;;;;;;;;;13.83;67.20;98088.11;109586;1251;60225;-70
2022/04/29 07:12:49;;;;;;;;;;;;;;;14.48;66.47;98087.88;109839;1250;59668;-66
2022/04/29 07:15:18;;;;;;;;;;;;;;;14.98;66.12;98087.66;109595;1254;70590;-70
2022/04/29 07:17:47;;;;;;;;;;;;;;;15.35;65.27;98089.61;109569;1254;68632;-68
2022/04/29 07:20:16;;;;;;;;;;;;;;;15.33;61.90;98089.40;109547;1253;68910;-69
2022/04/29 07:22:45;;;;;;;;;;;;;;;15.05;62.46;98086.41;109632;1251;59771;-69
2022/04/29 07:25:14;;;;;;;;;;;;;;;15.13;62.94;98088.34;109612;1251;59665;-71
2022/04/29 07:27:43;;;;;;;;;;;;;;;15.51;61.35;98094.04;109619;1251;71583;-70
2022/04/29 07:30:12;;;;;;;;;;;;;;;15.49;59.83;98096.86;109817;1250;68553;-69
2022/04/29 07:32:50;;;;;;;;;;;;;;;15.25;58.32;98094.27;109485;1251;68632;-65
2022/04/29 07:41:45;;;;;;;;;;;;;;;16.63;58.41;98096.03;109506;1251;71226;-69
2022/04/29 07:44:16;;;;;;;;;;;;;;;17.06;56.22;98091.22;109626;1251;68578;-68
2022/04/29 07:46:47;;;;;;;;;;;;;;;17.21;54.25;98091.49;109770;1251;68648;-66
2022/04/29 07:49:35;;;;;;;;;;;;;;;17.20;53.60;98088.81;109771;1250;59770;-70
2022/04/29 07:52:05;;;;;;;;;;;;;;;16.99;53.82;98088.31;109980;1251;60136;-71
2022/04/29 07:54:35;;;;;;;;;;;;;;;17.44;52.18;98095.06;109825;1250;70810;-68
2022/04/29 07:57:05;;;;;;;;;;;;;;;17.49;50.89;98094.81;109672;1253;67825;-69
2022/04/29 07:59:34;;;;;;;;;;;;;;;17.63;49.39;98091.77;109653;1251;68641;-68
2022/04/29 08:02:35;;;;;;;;;;;;;;;17.64;50.11;98092.27;109354;1253;59767;-69
2022/04/29 08:05:05;;;;;;;;;;;;;;;17.60;50.16;98088.33;109558;1254;59706;-70
2022/04/29 08:07:34;;;;;;;;;;;;;;;17.53;50.33;98085.27;109374;1251;70749;-70
2022/04/29 08:10:04;;;;;;;;;;;;;;;17.84;49.79;98083.91;109471;1254;67821;-70
2022/04/29 08:12:36;;;;;;;;;;;;;;;17.72;50.26;98079.55;109560;1254;69661;-70
2022/04/29 08:15:25;;;;;;;;;;;;;;;17.70;50.76;98079.39;109944;1251;59759;-70
2022/04/29 08:18:18;;;;;;;;;;;;;;;17.80;51.80;98081.08;109642;1253;59759;-70
2022/04/29 08:20:49;;;;;;;;;;;;;;;17.35;51.34;98079.31;109688;1253;71926;-69
2022/04/29 08:23:19;;;;;;;;;;;;;;;16.82;51.81;98075.90;109874;1252;68627;-72
2022/04/29 08:25:49;;;;;;;;;;;;;;;16.48;51.80;98075.57;109945;1251;69413;-71
2022/04/29 08:28:20;;;;;;;;;;;;;;;16.61;52.41;98075.98;109896;1251;59745;-71
2022/04/29 08:30:51;;;;;;;;;;;;;;;16.81;52.81;98080.25;109699;1251;59724;-69
2022/04/29 08:33:26;;;;;;;;;;;;;;;16.95;51.27;98079.17;109589;1251;71980;-70
2022/04/29 08:36:09;;;;;;;;;;;;;;;17.34;52.12;98075.91;109702;1251;67955;-70
2022/04/29 08:38:40;;;;;;;;;;;;;;;17.10;51.07;98074.67;109559;1254;69816;-71
2022/04/29 08:41:10;;;;;;;;;;;;;;;18.06;50.69;98073.58;109684;1253;59724;-70
2022/04/29 08:43:40;;;;;;;;;;;;;;;18.49;48.26;98070.77;109579;1254;59733;-71
2022/04/29 08:46:13;;;;;;;;;;;;;;;18.26;48.36;98069.09;109472;1254;72773;-69
2022/04/29 08:49:02;;;;;;;;;;;;;;;17.97;45.91;98066.46;109492;1255;68757;-71
2022/04/29 08:51:34;;;;;;;;;;;;;;;18.09;46.99;98069.60;109592;1254;68647;-71
2022/04/29 08:54:04;;;;;;;;;;;;;;;17.83;48.13;98063.89;109716;1252;59666;-69
2022/04/29 08:59:23;;;;;;;;;;;;;;;17.47;49.58;98062.95;109614;1251;71553;-70
2022/04/29 09:01:53;;;;;;;;;;;;;;;17.10;49.68;98061.12;109634;1254;68177;-70
2022/04/29 09:04:24;;;;;;;;;;;;;;;17.14;49.90;98057.59;109080;1251;653785;-70
2022/04/29 09:06:54;;;;;;;;;;;;;;;17.15;49.48;98056.51;109626;1251;59795;-70
2022/04/29 09:09:24;;;;;;;;;;;;;;;17.10;49.66;98055.86;109455;1251;59795;-70
2022/04/29 09:12:14;;;;;;;;;;;;;;;17.12;49.51;98052.70;109654;1251;70757;-69
2022/04/29 09:14:44;;;;;;;;;;;;;;;17.19;50.60;98053.82;109645;1251;68457;-71
2022/04/29 09:17:27;;;;;;;;;;;;;;;17.35;49.72;98055.58;109527;1253;68434;-70
2022/04/29 09:19:57;;;;;;;;;;;;;;;17.01;48.20;98046.81;109570;1254;59769;-70
2022/04/29 09:22:31;;;;;;;;;;;;;;;16.96;49.42;98048.33;109351;1254;59685;-69
2022/04/29 09:25:13;;;;;;;;;;;;;;;17.03;48.90;98048.77;109451;1254;71833;-70
2022/04/29 09:27:54;;;;;;;;;;;;;;;17.12;49.23;98047.55;109683;1251;67852;-69
2022/04/29 09:30:41;;;;;;;;;;;;;;;17.35;49.84;98049.60;109581;1252;68683;-69
2022/04/29 09:33:35;;;;;;;;;;;;;;;17.32;48.60;98044.70;109717;1251;59775;-69
2022/04/29 09:36:26;;;;;;;;;;;;;;;17.37;49.08;98045.02;109700;1251;59758;-69
2022/04/29 09:41:58;;;;;;;;;;;;;;;16.47;50.80;98039.60;109849;1251;67846;-71
2022/04/29 09:44:30;;;;;;;;;;;;;;;16.39;51.20;98038.33;109614;1251;68732;-71
2022/04/29 09:47:13;;;;;;;;;;;;;;;16.30;51.17;98039.79;109658;1251;59703;-69
2022/04/29 09:49:58;;;;;;;;;;;;;;;16.65;51.21;98028.71;109583;1254;59754;-70
2022/04/29 09:52:31;;;;;;;;;;;;;;;16.99;52.01;98029.23;109682;1253;72677;-69
2022/04/29 09:55:10;;;;;;;;;;;;;;;17.34;49.04;98032.38;109888;1251;68794;-69
2022/04/29 09:57:56;;;;;;;;;;;;;;;17.65;45.16;98035.90;109640;1251;69009;-70
2022/04/29 10:00:28;;;;;;;;;;;;;;;18.22;46.46;98033.96;109537;1252;60119;-71
2022/04/29 10:03:03;;;;;;;;;;;;;;;18.60;44.45;98030.39;109801;1251;59686;-69
2022/04/29 10:05:34;;;;;;;;;;;;;;;18.98;45.80;98026.33;109586;1251;70731;-69
2022/04/29 10:08:09;;;;;;;;;;;;;;;19.51;43.98;98027.20;109795;1251;68663;-72
2022/04/29 10:10:39;;;;;;;;;;;;;;;19.67;42.65;98025.09;109947;1251;69361;-68
2022/04/29 10:13:09;;;;;;;;;;;;;;;19.56;41.75;98021.86;109639;1251;59696;-71
2022/04/29 10:15:46;;;;;;;;;;;;;;;19.24;43.55;98021.82;109577;1251;59712;-67
2022/04/29 10:21:50;;;;;;;;;;;;;;;18.69;43.85;98023.69;109770;1252;67801;-68
2022/04/29 10:24:24;;;;;;;;;;;;;;;18.50;44.70;98027.80;109774;1251;69353;-69
2022/04/29 10:26:54;;;;;;;;;;;;;;;18.34;44.17;98029.65;109627;1251;59697;-70
2022/04/29 10:29:25;;;;;;;;;;;;;;;18.16;45.31;98026.61;109672;1251;59762;-69
2022/04/29 10:32:06;;;;;;;;;;;;;;;18.02;46.56;98028.60;109610;1254;70785;-72
2022/04/29 10:34:37;;;;;;;;;;;;;;;17.92;46.83;98026.37;109752;1252;68664;-70
2022/04/29 10:37:13;;;;;;;;;;;;;;;18.02;46.57;98025.42;109652;1251;69083;-68
2022/04/29 10:40:02;;;;;;;;;;;;;;;18.59;45.64;98019.54;109662;1253;59739;-70
2022/04/29 10:42:52;;;;;;;;;;;;;;;19.41;44.70;98019.85;109821;1251;59750;-71
2022/04/29 10:45:22;;;;;;;;;;;;;;;20.27;44.74;98015.71;109565;1253;70588;-70
2022/04/29 10:47:55;;;;;;;;;;;;;;;20.64;42.95;98015.31;109572;1253;68408;-69
2022/04/29 10:50:36;;;;;;;;;;;;;;;20.10;44.40;98018.91;109594;1251;69415;-70
2022/04/29 10:53:25;;;;;;;;;;;;;;;19.84;44.32;98018.48;109725;1251;59713;-70
2022/04/29 10:56:22;;;;;;;;;;;;;;;19.02;45.22;98020.33;109714;1251;59713;-70
2022/04/29 10:59:10;;;;;;;;;;;;;;;18.06;47.59;98029.14;109750;1251;71184;-71
2022/04/29 11:02:00;;;;;;;;;;;;;;;16.97;50.84;98023.77;109648;1253;68965;-70
2022/04/29 11:04:31;;;;;;;;;;;;;;;15.54;53.41;98030.04;109700;1251;69776;-69
2022/04/29 11:07:01;;;;;;;;;;;;;;;14.89;55.12;98029.77;109858;1251;59773;-70
2022/04/29 11:09:46;;;;;;;;;;;;;;;14.67;55.65;98028.16;109530;1254;59702;-70
2022/04/29 11:12:37;;;;;;;;;;;;;;;14.68;54.76;98025.67;109749;1251;71975;-68
2022/04/29 11:15:41;;;;;;;;;;;;;;;14.85;55.04;98029.20;109432;1251;68292;-69
2022/04/29 11:18:23;;;;;;;;;;;;;;;14.99;54.74;98025.23;109522;1251;69799;-69
2022/04/29 11:20:57;;;;;;;;;;;;;;;15.13;54.29;98025.20;109785;1251;59695;-70
2022/04/29 11:26:21;;;;;;;;;;;;;;;15.43;53.58;98025.66;109566;1251;71536;-70
2022/04/29 11:28:55;;;;;;;;;;;;;;;15.31;53.07;98022.25;109602;1251;68110;-69
2022/04/29 11:31:34;;;;;;;;;;;;;;;15.58;53.21;98024.85;109665;1253;68646;-67
2022/04/29 11:34:08;;;;;;;;;;;;;;;15.62;53.64;98019.78;109708;1250;59738;-70
2022/04/29 11:36:38;;;;;;;;;;;;;;;15.60;54.90;98023.04;109762;1251;59784;-70
2022/04/29 11:39:14;;;;;;;;;;;;;;;15.45;55.73;98019.04;109596;1251;70963;-68
2022/04/29 11:41:55;;;;;;;;;;;;;;;15.21;56.99;98021.89;109549;1253;67852;-70
2022/04/29 11:44:34;;;;;;;;;;;;;;;14.98;57.74;98020.22;109621;1253;69070;-71
2022/04/29 11:47:05;;;;;;;;;;;;;;;14.79;56.37;98020.36;109510;1253;59726;-68
2022/04/29 11:49:44;;;;;;;;;;;;;;;14.70;56.15;98011.45;109607;1251;59683;-69
2022/04/29 11:52:27;;;;;;;;;;;;;;;14.64;56.21;98012.09;109544;1251;73243;-69
2022/04/29 11:54:59;;;;;;;;;;;;;;;14.69;56.19;98015.59;109882;1250;67629;-70
2022/04/29 11:57:30;;;;;;;;;;;;;;;14.94;55.09;98013.01;109673;1251;69035;-70
2022/04/29 12:00:02;;;;;;;;;;;;;;;15.21;54.55;98013.13;109699;1251;59762;-72
2022/04/29 12:02:46;;;;;;;;;;;;;;;15.29;54.69;98008.58;109574;1253;59652;-70
2022/04/29 12:05:23;;;;;;;;;;;;;;;15.62;55.38;98007.42;109637;1249;70252;-69
2022/04/29 12:07:57;;;;;;;;;;;;;;;16.01;53.39;98005.53;109492;1252;68467;-69
2022/04/29 12:10:37;;;;;;;;;;;;;;;16.26;52.92;98003.41;109529;1250;69361;-70
2022/04/29 12:13:09;;;;;;;;;;;;;;;16.33;52.74;97999.64;109643;1250;59772;-72
2022/04/29 12:15:42;;;;;;;;;;;;;;;16.46;51.32;97997.77;109794;1251;59782;-70
2022/04/29 12:18:14;;;;;;;;;;;;;;;16.26;51.15;98001.80;109838;1251;71206;-69
2022/04/29 12:20:55;;;;;;;;;;;;;;;16.09;51.87;97996.10;109843;1250;67799;-71
2022/04/29 12:23:31;;;;;;;;;;;;;;;16.12;51.23;98003.50;109693;1250;68664;-70
2022/04/29 12:26:03;;;;;;;;;;;;;;;15.84;51.90;98000.88;109735;1251;59665;-68
2022/04/29 12:28:40;;;;;;;;;;;;;;;15.89;51.47;98000.40;109869;1251;59716;-68
2022/04/29 12:34:49;;;;;;;;;;;;;;;15.79;49.54;98002.34;109587;1253;67893;-69
2022/04/29 12:37:08;;;;;;;;;;;;;;;15.60;50.38;98000.42;109680;1252;69569;-69
2022/04/29 12:40:03;;;;;;;;;;;;;;;15.60;50.70;98000.73;109738;1251;59660;-70
2022/04/29 12:42:33;;;;;;;;;;;;;;;15.57;50.94;98002.05;109684;1254;59748;-70
2022/04/29 12:45:14;;;;;;;;;;;;;;;15.64;50.49;97997.03;109553;1253;71505;-69
2022/04/29 12:48:05;;;;;;;;;;;;;;;15.84;50.53;97992.77;109637;1252;68755;-69
2022/04/29 12:50:45;;;;;;;;;;;;;;;16.01;49.04;97988.27;109741;1252;68747;-69
2022/04/29 12:53:18;;;;;;;;;;;;;;;16.04;47.98;97991.21;109568;1251;59707;-70
2022/04/29 12:55:51;;;;;;;;;;;;;;;15.96;48.47;97987.36;109537;1251;59843;-69
2022/04/29 12:58:44;;;;;;;;;;;;;;;16.06;48.49;97990.00;109608;1252;70978;-68
2022/04/29 13:01:14;;;;;;;;;;;;;;;16.26;48.48;97988.66;109633;1252;69445;-68
2022/04/29 13:04:01;;;;;;;;;;;;;;;16.51;48.12;97983.75;109471;1253;68034;-71
2022/04/29 13:06:57;;;;;;;;;;;;;;;16.63;46.68;97983.95;109517;1254;59701;-68
2022/04/29 13:09:28;;;;;;;;;;;;;;;16.72;47.50;97983.33;109735;1253;59612;-71
2022/04/29 13:11:57;;;;;;;;;;;;;;;16.80;46.93;97982.45;109831;1251;71556;-69
2022/04/29 13:14:38;;;;;;;;;;;;;;;16.76;46.11;97980.41;109593;1252;67552;-69
2022/04/29 13:17:08;;;;;;;;;;;;;;;16.79;47.21;97979.58;109655;1250;69311;-69
2022/04/29 13:19:38;;;;;;;;;;;;;;;16.83;47.47;97977.99;109775;1253;59611;-68
2022/04/29 13:22:07;;;;;;;;;;;;;;;16.72;47.31;97972.42;109400;1253;59768;-69
2022/04/29 13:24:37;;;;;;;;;;;;;;;16.69;48.21;97967.27;109515;1252;70769;-69
2022/04/29 13:27:09;;;;;;;;;;;;;;;16.65;47.81;97964.55;109565;1254;69137;-70
2022/04/29 13:29:38;;;;;;;;;;;;;;;16.47;48.26;97963.38;109387;1253;69460;-70
2022/04/29 13:32:09;;;;;;;;;;;;;;;16.48;48.66;97961.52;109590;1253;59692;-69
2022/04/29 13:34:39;;;;;;;;;;;;;;;16.48;48.29;97957.46;109613;1251;59740;-70
2022/04/29 13:37:09;;;;;;;;;;;;;;;16.56;48.29;97957.65;109611;1251;71136;-69
2022/04/29 13:39:41;;;;;;;;;;;;;;;16.63;48.68;97955.80;109631;1251;68565;-69
2022/04/29 13:42:15;;;;;;;;;;;;;;;16.71;47.99;97960.39;109761;1251;69388;-70
2022/04/29 13:44:46;;;;;;;;;;;;;;;16.72;48.14;97955.37;109629;1253;59676;-69
2022/04/29 13:47:16;;;;;;;;;;;;;;;16.68;47.84;97951.15;109602;1251;59689;-68